sensor_id;sensor_type;location;lat;lon;timestamp;P1;durP1;ratioP1;P2;durP2;ratioP2
51616;SDS011;37697;52.588;13.394;2023-07-20T00:01:29;3.40;;;2.30;;
51616;SDS011;37697;52.588;13.394;2023-07-20T00:06:35;4.30;;;2.90;;
51616;SDS011;37697;52.588;13.394;2023-07-20T00:11:49;6.70;;;2.50;;
51616;SDS011;37697;52.588;13.394;2023-07-20T00:16:56;5.00;;;2.80;;
51616;SDS011;37697;52.588;13.394;2023-07-20T00:22:01;3.60;;;2.60;;
51616;SDS011;37697;52.588;13.394;2023-07-20T00:27:08;3.00;;;2.40;;
51616;SDS011;37697;52.588;13.394;2023-07-20T00:32:13;5.00;;;2.90;;
51616;SDS011;37697;52.588;13.394;2023-07-20T00:37:19;3.30;;;2.60;;
51616;SDS011;37697;52.588;13.394;2023-07-20T00:42:24;4.30;;;2.90;;
51616;SDS011;37697;52.588;13.394;2023-07-20T00:47:30;2.90;;;2.50;;
51616;SDS011;37697;52.588;13.394;2023-07-20T00:52:36;3.60;;;2.70;;
51616;SDS011;37697;52.588;13.394;2023-07-20T00:57:45;3.20;;;2.70;;
51616;SDS011;37697;52.588;13.394;2023-07-20T01:02:51;5.10;;;2.40;;
51616;SDS011;37697;52.588;13.394;2023-07-20T01:07:58;4.00;;;2.90;;
51616;SDS011;37697;52.588;13.394;2023-07-20T01:13:08;5.20;;;2.60;;
51616;SDS011;37697;52.588;13.394;2023-07-20T01:18:15;4.90;;;3.00;;
51616;SDS011;37697;52.588;13.394;2023-07-20T01:23:26;5.30;;;3.30;;
51616;SDS011;37697;52.588;13.394;2023-07-20T01:28:50;5.20;;;3.10;;
51616;SDS011;37697;52.588;13.394;2023-07-20T01:34:09;4.20;;;3.00;;
51616;SDS011;37697;52.588;13.394;2023-07-20T01:39:21;6.40;;;5.20;;
51616;SDS011;37697;52.588;13.394;2023-07-20T01:44:27;5.50;;;4.50;;
51616;SDS011;37697;52.588;13.394;2023-07-20T01:49:33;7.30;;;4.10;;
51616;SDS011;37697;52.588;13.394;2023-07-20T01:54:38;5.70;;;4.20;;
51616;SDS011;37697;52.588;13.394;2023-07-20T01:59:44;6.30;;;4.00;;
51616;SDS011;37697;52.588;13.394;2023-07-20T02:04:49;5.20;;;4.70;;
51616;SDS011;37697;52.588;13.394;2023-07-20T02:09:55;5.20;;;4.70;;
51616;SDS011;37697;52.588;13.394;2023-07-20T02:15:00;6.30;;;4.90;;
51616;SDS011;37697;52.588;13.394;2023-07-20T02:20:07;6.20;;;4.80;;
51616;SDS011;37697;52.588;13.394;2023-07-20T02:25:13;6.20;;;5.50;;
51616;SDS011;37697;52.588;13.394;2023-07-20T02:30:19;6.30;;;5.70;;
51616;SDS011;37697;52.588;13.394;2023-07-20T02:35:24;7.30;;;6.50;;
51616;SDS011;37697;52.588;13.394;2023-07-20T02:40:30;8.20;;;7.00;;
51616;SDS011;37697;52.588;13.394;2023-07-20T02:45:35;8.80;;;7.20;;
51616;SDS011;37697;52.588;13.394;2023-07-20T02:50:44;8.30;;;6.40;;
51616;SDS011;37697;52.588;13.394;2023-07-20T02:55:50;7.30;;;6.20;;
51616;SDS011;37697;52.588;13.394;2023-07-20T03:00:55;10.10;;;8.00;;
51616;SDS011;37697;52.588;13.394;2023-07-20T03:06:01;9.90;;;7.40;;
51616;SDS011;37697;52.588;13.394;2023-07-20T03:11:06;10.50;;;8.40;;
51616;SDS011;37697;52.588;13.394;2023-07-20T03:16:12;13.00;;;9.60;;
51616;SDS011;37697;52.588;13.394;2023-07-20T03:21:21;13.90;;;9.30;;
51616;SDS011;37697;52.588;13.394;2023-07-20T03:26:27;13.00;;;9.50;;
51616;SDS011;37697;52.588;13.394;2023-07-20T03:31:32;12.40;;;9.20;;
51616;SDS011;37697;52.588;13.394;2023-07-20T03:36:37;12.80;;;10.30;;
51616;SDS011;37697;52.588;13.394;2023-07-20T03:41:43;12.00;;;9.50;;
51616;SDS011;37697;52.588;13.394;2023-07-20T03:46:48;12.20;;;9.00;;
51616;SDS011;37697;52.588;13.394;2023-07-20T03:51:54;11.30;;;8.90;;
51616;SDS011;37697;52.588;13.394;2023-07-20T03:56:59;13.30;;;9.80;;
51616;SDS011;37697;52.588;13.394;2023-07-20T04:02:05;13.00;;;8.60;;
51616;SDS011;37697;52.588;13.394;2023-07-20T04:07:10;10.40;;;8.80;;
51616;SDS011;37697;52.588;13.394;2023-07-20T04:12:15;8.90;;;8.00;;
51616;SDS011;37697;52.588;13.394;2023-07-20T04:17:21;9.30;;;8.40;;
51616;SDS011;37697;52.588;13.394;2023-07-20T04:22:26;9.30;;;8.20;;
51616;SDS011;37697;52.588;13.394;2023-07-20T04:27:31;10.70;;;9.60;;
51616;SDS011;37697;52.588;13.394;2023-07-20T04:32:37;12.60;;;9.80;;
51616;SDS011;37697;52.588;13.394;2023-07-20T04:37:50;11.60;;;9.00;;
51616;SDS011;37697;52.588;13.394;2023-07-20T04:42:55;11.20;;;8.70;;
51616;SDS011;37697;52.588;13.394;2023-07-20T04:48:01;10.50;;;9.10;;
51616;SDS011;37697;52.588;13.394;2023-07-20T04:53:08;10.60;;;9.50;;
51616;SDS011;37697;52.588;13.394;2023-07-20T04:58:16;10.80;;;8.30;;
51616;SDS011;37697;52.588;13.394;2023-07-20T05:03:22;7.90;;;6.70;;
51616;SDS011;37697;52.588;13.394;2023-07-20T05:08:28;7.60;;;6.70;;
51616;SDS011;37697;52.588;13.394;2023-07-20T05:13:34;10.80;;;6.80;;
51616;SDS011;37697;52.588;13.394;2023-07-20T05:18:39;9.40;;;6.80;;
51616;SDS011;37697;52.588;13.394;2023-07-20T05:23:45;7.60;;;6.40;;
51616;SDS011;37697;52.588;13.394;2023-07-20T05:28:50;10.50;;;7.20;;
51616;SDS011;37697;52.588;13.394;2023-07-20T05:33:56;8.30;;;6.40;;
51616;SDS011;37697;52.588;13.394;2023-07-20T05:39:01;7.80;;;5.90;;
51616;SDS011;37697;52.588;13.394;2023-07-20T05:44:07;6.90;;;6.00;;
51616;SDS011;37697;52.588;13.394;2023-07-20T05:49:12;8.30;;;6.20;;
51616;SDS011;37697;52.588;13.394;2023-07-20T05:54:18;8.10;;;5.70;;
51616;SDS011;37697;52.588;13.394;2023-07-20T05:59:24;5.90;;;4.60;;
51616;SDS011;37697;52.588;13.394;2023-07-20T06:04:31;7.20;;;5.30;;
51616;SDS011;37697;52.588;13.394;2023-07-20T06:09:37;9.20;;;5.70;;
51616;SDS011;37697;52.588;13.394;2023-07-20T06:14:43;6.90;;;4.90;;
51616;SDS011;37697;52.588;13.394;2023-07-20T06:19:48;6.80;;;4.20;;
51616;SDS011;37697;52.588;13.394;2023-07-20T06:24:53;5.10;;;3.30;;
51616;SDS011;37697;52.588;13.394;2023-07-20T06:29:59;4.80;;;3.00;;
51616;SDS011;37697;52.588;13.394;2023-07-20T06:35:05;4.80;;;2.60;;
51616;SDS011;37697;52.588;13.394;2023-07-20T06:40:12;4.50;;;2.60;;
51616;SDS011;37697;52.588;13.394;2023-07-20T06:45:20;3.20;;;2.20;;
51616;SDS011;37697;52.588;13.394;2023-07-20T06:50:26;3.80;;;1.90;;
51616;SDS011;37697;52.588;13.394;2023-07-20T06:55:31;3.20;;;1.60;;
51616;SDS011;37697;52.588;13.394;2023-07-20T07:00:45;3.00;;;1.80;;
51616;SDS011;37697;52.588;13.394;2023-07-20T07:05:50;3.20;;;1.80;;
51616;SDS011;37697;52.588;13.394;2023-07-20T07:11:00;2.70;;;1.50;;
51616;SDS011;37697;52.588;13.394;2023-07-20T07:16:06;2.40;;;1.30;;
51616;SDS011;37697;52.588;13.394;2023-07-20T07:21:12;2.40;;;1.20;;
51616;SDS011;37697;52.588;13.394;2023-07-20T07:26:18;3.90;;;1.20;;
51616;SDS011;37697;52.588;13.394;2023-07-20T07:31:24;3.40;;;1.20;;
51616;SDS011;37697;52.588;13.394;2023-07-20T07:36:29;1.70;;;0.90;;
51616;SDS011;37697;52.588;13.394;2023-07-20T07:41:35;4.00;;;1.10;;
51616;SDS011;37697;52.588;13.394;2023-07-20T07:46:40;2.10;;;1.10;;
51616;SDS011;37697;52.588;13.394;2023-07-20T07:51:46;1.50;;;0.90;;
51616;SDS011;37697;52.588;13.394;2023-07-20T07:56:52;1.30;;;1.00;;
51616;SDS011;37697;52.588;13.394;2023-07-20T08:01:57;1.20;;;0.80;;
51616;SDS011;37697;52.588;13.394;2023-07-20T08:07:03;1.30;;;0.80;;
51616;SDS011;37697;52.588;13.394;2023-07-20T08:12:09;1.30;;;0.70;;
51616;SDS011;37697;52.588;13.394;2023-07-20T08:17:15;2.40;;;0.80;;
51616;SDS011;37697;52.588;13.394;2023-07-20T08:22:21;1.70;;;0.70;;
51616;SDS011;37697;52.588;13.394;2023-07-20T08:27:27;1.20;;;0.70;;
51616;SDS011;37697;52.588;13.394;2023-07-20T08:32:33;0.80;;;0.60;;
51616;SDS011;37697;52.588;13.394;2023-07-20T08:37:39;1.20;;;0.60;;
51616;SDS011;37697;52.588;13.394;2023-07-20T08:42:44;1.00;;;0.60;;
51616;SDS011;37697;52.588;13.394;2023-07-20T08:47:50;0.60;;;0.50;;
51616;SDS011;37697;52.588;13.394;2023-07-20T08:52:56;2.10;;;0.70;;
51616;SDS011;37697;52.588;13.394;2023-07-20T08:58:02;0.50;;;0.50;;
51616;SDS011;37697;52.588;13.394;2023-07-20T09:03:12;0.40;;;0.30;;
51616;SDS011;37697;52.588;13.394;2023-07-20T09:08:18;2.10;;;0.60;;
51616;SDS011;37697;52.588;13.394;2023-07-20T09:13:25;1.00;;;0.60;;
51616;SDS011;37697;52.588;13.394;2023-07-20T09:18:32;0.70;;;0.40;;
51616;SDS011;37697;52.588;13.394;2023-07-20T09:23:40;0.80;;;0.40;;
51616;SDS011;37697;52.588;13.394;2023-07-20T09:28:47;1.00;;;0.50;;
51616;SDS011;37697;52.588;13.394;2023-07-20T09:33:57;3.50;;;0.40;;
51616;SDS011;37697;52.588;13.394;2023-07-20T09:39:04;0.70;;;0.50;;
51616;SDS011;37697;52.588;13.394;2023-07-20T09:44:11;1.00;;;0.40;;
51616;SDS011;37697;52.588;13.394;2023-07-20T09:49:20;1.30;;;0.60;;
51616;SDS011;37697;52.588;13.394;2023-07-20T09:54:28;1.30;;;0.50;;
51616;SDS011;37697;52.588;13.394;2023-07-20T09:59:34;1.60;;;0.50;;
51616;SDS011;37697;52.588;13.394;2023-07-20T10:04:40;1.00;;;0.50;;
51616;SDS011;37697;52.588;13.394;2023-07-20T10:09:47;0.60;;;0.50;;
51616;SDS011;37697;52.588;13.394;2023-07-20T10:14:57;2.60;;;0.70;;
51616;SDS011;37697;52.588;13.394;2023-07-20T10:20:12;0.60;;;0.60;;
51616;SDS011;37697;52.588;13.394;2023-07-20T10:25:20;1.90;;;0.90;;
51616;SDS011;37697;52.588;13.394;2023-07-20T10:30:26;1.70;;;0.70;;
51616;SDS011;37697;52.588;13.394;2023-07-20T10:35:51;1.10;;;0.50;;
51616;SDS011;37697;52.588;13.394;2023-07-20T10:40:57;1.10;;;0.60;;
51616;SDS011;37697;52.588;13.394;2023-07-20T10:46:03;1.80;;;0.50;;
51616;SDS011;37697;52.588;13.394;2023-07-20T10:51:13;1.80;;;0.80;;
51616;SDS011;37697;52.588;13.394;2023-07-20T10:56:25;1.10;;;0.60;;
51616;SDS011;37697;52.588;13.394;2023-07-20T11:01:35;1.20;;;0.50;;
51616;SDS011;37697;52.588;13.394;2023-07-20T11:06:43;1.10;;;0.50;;
51616;SDS011;37697;52.588;13.394;2023-07-20T11:11:49;1.40;;;0.60;;
51616;SDS011;37697;52.588;13.394;2023-07-20T11:17:13;0.40;;;0.40;;
51616;SDS011;37697;52.588;13.394;2023-07-20T11:22:21;0.40;;;0.40;;
51616;SDS011;37697;52.588;13.394;2023-07-20T11:27:27;1.10;;;0.40;;
51616;SDS011;37697;52.588;13.394;2023-07-20T11:32:33;0.80;;;0.50;;
51616;SDS011;37697;52.588;13.394;2023-07-20T11:37:38;1.90;;;0.50;;
51616;SDS011;37697;52.588;13.394;2023-07-20T11:42:46;3.60;;;0.40;;
51616;SDS011;37697;52.588;13.394;2023-07-20T11:53:02;0.80;;;0.50;;
51616;SDS011;37697;52.588;13.394;2023-07-20T11:58:08;2.00;;;0.50;;
51616;SDS011;37697;52.588;13.394;2023-07-20T12:03:14;1.20;;;0.50;;
51616;SDS011;37697;52.588;13.394;2023-07-20T12:08:20;0.70;;;0.50;;
51616;SDS011;37697;52.588;13.394;2023-07-20T12:13:26;2.50;;;1.20;;
51616;SDS011;37697;52.588;13.394;2023-07-20T12:18:41;1.40;;;0.60;;
51616;SDS011;37697;52.588;13.394;2023-07-20T12:23:47;1.30;;;0.60;;
51616;SDS011;37697;52.588;13.394;2023-07-20T12:28:52;1.80;;;0.40;;
51616;SDS011;37697;52.588;13.394;2023-07-20T12:33:58;0.40;;;0.40;;
51616;SDS011;37697;52.588;13.394;2023-07-20T12:39:03;0.50;;;0.40;;
51616;SDS011;37697;52.588;13.394;2023-07-20T12:44:08;0.60;;;0.40;;
51616;SDS011;37697;52.588;13.394;2023-07-20T12:49:14;1.60;;;0.70;;
51616;SDS011;37697;52.588;13.394;2023-07-20T12:54:20;0.90;;;0.50;;
51616;SDS011;37697;52.588;13.394;2023-07-20T12:59:25;1.60;;;0.50;;
51616;SDS011;37697;52.588;13.394;2023-07-20T13:04:30;3.70;;;0.50;;
51616;SDS011;37697;52.588;13.394;2023-07-20T13:09:36;2.80;;;0.50;;
51616;SDS011;37697;52.588;13.394;2023-07-20T13:14:41;1.40;;;0.70;;
51616;SDS011;37697;52.588;13.394;2023-07-20T13:19:47;1.30;;;0.50;;
51616;SDS011;37697;52.588;13.394;2023-07-20T13:24:52;3.30;;;0.60;;
51616;SDS011;37697;52.588;13.394;2023-07-20T13:29:58;0.70;;;0.50;;
51616;SDS011;37697;52.588;13.394;2023-07-20T13:35:14;1.80;;;0.50;;
51616;SDS011;37697;52.588;13.394;2023-07-20T13:40:23;1.50;;;0.50;;
51616;SDS011;37697;52.588;13.394;2023-07-20T13:45:29;6.30;;;0.60;;
51616;SDS011;37697;52.588;13.394;2023-07-20T13:50:34;0.60;;;0.40;;
51616;SDS011;37697;52.588;13.394;2023-07-20T13:55:42;0.70;;;0.40;;
51616;SDS011;37697;52.588;13.394;2023-07-20T14:00:51;2.20;;;0.70;;
51616;SDS011;37697;52.588;13.394;2023-07-20T14:05:56;0.70;;;0.50;;
51616;SDS011;37697;52.588;13.394;2023-07-20T14:11:04;1.30;;;0.40;;
51616;SDS011;37697;52.588;13.394;2023-07-20T14:16:13;1.10;;;0.40;;
51616;SDS011;37697;52.588;13.394;2023-07-20T14:21:18;0.80;;;0.40;;
51616;SDS011;37697;52.588;13.394;2023-07-20T14:26:24;1.00;;;0.40;;
51616;SDS011;37697;52.588;13.394;2023-07-20T14:31:30;0.70;;;0.50;;
51616;SDS011;37697;52.588;13.394;2023-07-20T14:36:36;1.00;;;0.50;;
51616;SDS011;37697;52.588;13.394;2023-07-20T14:41:41;1.90;;;0.50;;
51616;SDS011;37697;52.588;13.394;2023-07-20T14:46:47;1.00;;;0.50;;
51616;SDS011;37697;52.588;13.394;2023-07-20T14:52:12;2.20;;;0.40;;
51616;SDS011;37697;52.588;13.394;2023-07-20T14:57:19;2.00;;;0.70;;
51616;SDS011;37697;52.588;13.394;2023-07-20T15:02:27;1.70;;;0.50;;
51616;SDS011;37697;52.588;13.394;2023-07-20T15:07:32;1.10;;;0.70;;
51616;SDS011;37697;52.588;13.394;2023-07-20T15:12:41;2.30;;;0.50;;
51616;SDS011;37697;52.588;13.394;2023-07-20T15:17:46;2.70;;;0.70;;
51616;SDS011;37697;52.588;13.394;2023-07-20T15:22:53;1.60;;;0.60;;
51616;SDS011;37697;52.588;13.394;2023-07-20T15:27:59;0.70;;;0.60;;
51616;SDS011;37697;52.588;13.394;2023-07-20T15:33:04;1.40;;;0.50;;
51616;SDS011;37697;52.588;13.394;2023-07-20T15:38:12;1.20;;;0.60;;
51616;SDS011;37697;52.588;13.394;2023-07-20T15:43:18;1.10;;;0.60;;
51616;SDS011;37697;52.588;13.394;2023-07-20T15:48:24;1.60;;;0.50;;
51616;SDS011;37697;52.588;13.394;2023-07-20T15:53:30;5.00;;;0.60;;
51616;SDS011;37697;52.588;13.394;2023-07-20T15:58:35;1.70;;;0.70;;
51616;SDS011;37697;52.588;13.394;2023-07-20T16:03:42;3.30;;;0.60;;
51616;SDS011;37697;52.588;13.394;2023-07-20T16:08:48;2.20;;;0.70;;
51616;SDS011;37697;52.588;13.394;2023-07-20T16:13:55;1.30;;;0.70;;
51616;SDS011;37697;52.588;13.394;2023-07-20T16:19:00;2.30;;;0.70;;
51616;SDS011;37697;52.588;13.394;2023-07-20T16:24:06;1.10;;;0.70;;
51616;SDS011;37697;52.588;13.394;2023-07-20T16:29:12;2.40;;;0.90;;
51616;SDS011;37697;52.588;13.394;2023-07-20T16:34:21;4.30;;;0.70;;
51616;SDS011;37697;52.588;13.394;2023-07-20T16:39:27;2.90;;;0.80;;
51616;SDS011;37697;52.588;13.394;2023-07-20T16:44:33;3.20;;;0.90;;
51616;SDS011;37697;52.588;13.394;2023-07-20T16:49:39;1.80;;;0.90;;
51616;SDS011;37697;52.588;13.394;2023-07-20T16:54:44;2.20;;;0.80;;
51616;SDS011;37697;52.588;13.394;2023-07-20T16:59:50;2.30;;;1.00;;
51616;SDS011;37697;52.588;13.394;2023-07-20T17:04:56;14.40;;;1.30;;
51616;SDS011;37697;52.588;13.394;2023-07-20T17:10:01;3.60;;;0.80;;
51616;SDS011;37697;52.588;13.394;2023-07-20T17:15:07;3.50;;;0.80;;
51616;SDS011;37697;52.588;13.394;2023-07-20T17:20:13;3.30;;;0.80;;
51616;SDS011;37697;52.588;13.394;2023-07-20T17:25:22;3.00;;;0.60;;
51616;SDS011;37697;52.588;13.394;2023-07-20T17:30:30;3.30;;;1.10;;
51616;SDS011;37697;52.588;13.394;2023-07-20T17:35:36;1.80;;;0.70;;
51616;SDS011;37697;52.588;13.394;2023-07-20T17:40:41;2.80;;;0.60;;
51616;SDS011;37697;52.588;13.394;2023-07-20T17:45:48;1.20;;;0.60;;
51616;SDS011;37697;52.588;13.394;2023-07-20T17:50:55;3.80;;;0.60;;
51616;SDS011;37697;52.588;13.394;2023-07-20T17:56:00;1.40;;;0.50;;
51616;SDS011;37697;52.588;13.394;2023-07-20T18:01:06;3.30;;;0.70;;
51616;SDS011;37697;52.588;13.394;2023-07-20T18:06:11;0.90;;;0.40;;
51616;SDS011;37697;52.588;13.394;2023-07-20T18:11:17;1.30;;;0.40;;
51616;SDS011;37697;52.588;13.394;2023-07-20T18:16:22;1.50;;;0.60;;
51616;SDS011;37697;52.588;13.394;2023-07-20T18:21:28;2.00;;;0.40;;
51616;SDS011;37697;52.588;13.394;2023-07-20T18:26:33;1.70;;;0.60;;
51616;SDS011;37697;52.588;13.394;2023-07-20T18:31:39;2.00;;;0.60;;
51616;SDS011;37697;52.588;13.394;2023-07-20T18:36:44;1.00;;;0.50;;
51616;SDS011;37697;52.588;13.394;2023-07-20T18:41:50;2.80;;;0.90;;
51616;SDS011;37697;52.588;13.394;2023-07-20T18:46:56;1.40;;;0.50;;
51616;SDS011;37697;52.588;13.394;2023-07-20T18:52:01;2.40;;;0.70;;
51616;SDS011;37697;52.588;13.394;2023-07-20T18:57:07;2.10;;;0.70;;
51616;SDS011;37697;52.588;13.394;2023-07-20T19:02:13;2.10;;;0.80;;
51616;SDS011;37697;52.588;13.394;2023-07-20T19:07:18;1.50;;;0.80;;
51616;SDS011;37697;52.588;13.394;2023-07-20T19:12:24;3.50;;;1.10;;
51616;SDS011;37697;52.588;13.394;2023-07-20T19:17:29;1.50;;;0.90;;
51616;SDS011;37697;52.588;13.394;2023-07-20T19:22:35;2.40;;;1.10;;
51616;SDS011;37697;52.588;13.394;2023-07-20T19:27:41;2.10;;;0.70;;
51616;SDS011;37697;52.588;13.394;2023-07-20T19:32:46;1.90;;;1.00;;
51616;SDS011;37697;52.588;13.394;2023-07-20T19:37:52;2.50;;;0.90;;
51616;SDS011;37697;52.588;13.394;2023-07-20T19:42:59;4.00;;;1.10;;
51616;SDS011;37697;52.588;13.394;2023-07-20T19:48:06;8.00;;;1.00;;
51616;SDS011;37697;52.588;13.394;2023-07-20T19:53:12;1.60;;;0.70;;
51616;SDS011;37697;52.588;13.394;2023-07-20T19:58:21;2.50;;;0.70;;
51616;SDS011;37697;52.588;13.394;2023-07-20T20:03:26;2.10;;;0.80;;
51616;SDS011;37697;52.588;13.394;2023-07-20T20:08:34;2.20;;;1.20;;
51616;SDS011;37697;52.588;13.394;2023-07-20T20:13:40;3.30;;;0.80;;
51616;SDS011;37697;52.588;13.394;2023-07-20T20:18:45;3.20;;;1.00;;
51616;SDS011;37697;52.588;13.394;2023-07-20T20:23:51;3.90;;;1.10;;
51616;SDS011;37697;52.588;13.394;2023-07-20T20:28:56;6.50;;;1.60;;
51616;SDS011;37697;52.588;13.394;2023-07-20T20:34:02;6.70;;;1.90;;
51616;SDS011;37697;52.588;13.394;2023-07-20T20:39:07;10.60;;;2.80;;
51616;SDS011;37697;52.588;13.394;2023-07-20T20:44:13;5.90;;;2.00;;
51616;SDS011;37697;52.588;13.394;2023-07-20T20:49:18;5.00;;;1.40;;
51616;SDS011;37697;52.588;13.394;2023-07-20T20:54:24;3.20;;;1.30;;
51616;SDS011;37697;52.588;13.394;2023-07-20T20:59:29;5.60;;;1.40;;
51616;SDS011;37697;52.588;13.394;2023-07-20T21:04:35;5.00;;;1.40;;
51616;SDS011;37697;52.588;13.394;2023-07-20T21:09:40;3.80;;;1.10;;
51616;SDS011;37697;52.588;13.394;2023-07-20T21:14:47;3.40;;;1.40;;
51616;SDS011;37697;52.588;13.394;2023-07-20T21:19:53;3.20;;;1.30;;
51616;SDS011;37697;52.588;13.394;2023-07-20T21:24:58;3.90;;;1.60;;
51616;SDS011;37697;52.588;13.394;2023-07-20T21:30:05;2.40;;;1.20;;
51616;SDS011;37697;52.588;13.394;2023-07-20T21:35:12;3.10;;;1.30;;
51616;SDS011;37697;52.588;13.394;2023-07-20T21:40:17;3.00;;;1.50;;
51616;SDS011;37697;52.588;13.394;2023-07-20T21:45:23;3.10;;;1.60;;
51616;SDS011;37697;52.588;13.394;2023-07-20T21:50:29;4.30;;;2.00;;
51616;SDS011;37697;52.588;13.394;2023-07-20T21:55:35;7.10;;;2.30;;
51616;SDS011;37697;52.588;13.394;2023-07-20T22:00:41;5.90;;;2.10;;
51616;SDS011;37697;52.588;13.394;2023-07-20T22:05:47;5.80;;;2.50;;
51616;SDS011;37697;52.588;13.394;2023-07-20T22:11:05;6.90;;;3.10;;
51616;SDS011;37697;52.588;13.394;2023-07-20T22:16:11;5.90;;;3.10;;
51616;SDS011;37697;52.588;13.394;2023-07-20T22:21:16;5.80;;;2.70;;
51616;SDS011;37697;52.588;13.394;2023-07-20T22:26:22;5.70;;;2.80;;
51616;SDS011;37697;52.588;13.394;2023-07-20T22:31:28;4.70;;;2.80;;
51616;SDS011;37697;52.588;13.394;2023-07-20T22:36:34;5.40;;;2.70;;
51616;SDS011;37697;52.588;13.394;2023-07-20T22:41:40;5.90;;;3.00;;
51616;SDS011;37697;52.588;13.394;2023-07-20T22:46:45;4.80;;;2.50;;
51616;SDS011;37697;52.588;13.394;2023-07-20T22:51:51;4.50;;;2.20;;
51616;SDS011;37697;52.588;13.394;2023-07-20T22:56:56;4.70;;;2.30;;
51616;SDS011;37697;52.588;13.394;2023-07-20T23:02:01;4.00;;;2.20;;
51616;SDS011;37697;52.588;13.394;2023-07-20T23:07:07;4.30;;;2.20;;
51616;SDS011;37697;52.588;13.394;2023-07-20T23:12:13;5.00;;;2.00;;
51616;SDS011;37697;52.588;13.394;2023-07-20T23:17:18;5.10;;;1.90;;
51616;SDS011;37697;52.588;13.394;2023-07-20T23:22:25;5.00;;;1.90;;
51616;SDS011;37697;52.588;13.394;2023-07-20T23:27:31;4.20;;;1.70;;
51616;SDS011;37697;52.588;13.394;2023-07-20T23:32:38;3.00;;;1.50;;
51616;SDS011;37697;52.588;13.394;2023-07-20T23:37:43;4.00;;;1.80;;
51616;SDS011;37697;52.588;13.394;2023-07-20T23:42:51;3.00;;;1.50;;
51616;SDS011;37697;52.588;13.394;2023-07-20T23:47:57;2.80;;;1.60;;
51616;SDS011;37697;52.588;13.394;2023-07-20T23:53:02;2.90;;;1.70;;
51616;SDS011;37697;52.588;13.394;2023-07-20T23:58:08;5.20;;;1.80;;
